createdAt,value
2016-02-15T00:00:43.066Z,2.64
2016-02-15T00:01:43.037Z,2.65
2016-02-15T00:02:43.024Z,2.65
2016-02-15T00:03:42.980Z,2.72
2016-02-15T00:04:42.951Z,2.71
2016-02-15T00:05:42.906Z,2.65
2016-02-15T00:06:42.894Z,2.68
2016-02-15T00:07:42.850Z,2.69
2016-02-15T00:08:42.837Z,2.68
2016-02-15T00:09:42.793Z,2.62
2016-02-15T00:10:42.779Z,2.67
2016-02-15T00:11:42.736Z,2.65
2016-02-15T00:12:42.707Z,2.62
2016-02-15T00:13:42.678Z,2.67
2016-02-15T00:14:42.634Z,2.69
2016-02-15T00:15:42.622Z,2.68
2016-02-15T00:16:42.578Z,2.64
2016-02-15T00:17:42.548Z,2.61
2016-02-15T00:18:42.520Z,2.62
2016-02-15T00:19:42.491Z,2.62
2016-02-15T00:20:42.464Z,2.67
2016-02-15T00:21:42.434Z,2.69
2016-02-15T00:22:42.405Z,2.64
2016-02-15T00:23:42.377Z,2.71
2016-02-15T00:24:42.333Z,2.67
2016-02-15T00:25:42.320Z,2.65
2016-02-15T00:26:42.276Z,2.62
2016-02-15T00:27:42.247Z,2.69
2016-02-15T00:28:42.219Z,2.65
2016-02-15T00:29:42.205Z,2.61
2016-02-15T00:30:42.162Z,2.65
2016-02-15T00:31:42.149Z,2.67
2016-02-15T00:32:42.104Z,2.67
2016-02-15T00:33:42.077Z,2.6
2016-02-15T00:34:42.048Z,2.68
2016-02-15T00:35:42.018Z,2.64
2016-02-15T00:36:41.975Z,2.65
2016-02-15T00:37:41.946Z,2.6
2016-02-15T00:38:41.917Z,2.68
2016-02-15T00:39:41.889Z,2.68
2016-02-15T00:40:41.876Z,2.62
2016-02-15T00:41:41.832Z,2.62
2016-02-15T00:42:41.803Z,2.65
2016-02-15T00:43:41.775Z,2.67
2016-02-15T00:44:41.746Z,2.67
2016-02-15T00:45:41.703Z,2.69
2016-02-15T00:46:41.689Z,2.68
2016-02-15T00:47:41.644Z,2.69
2016-02-15T00:48:41.632Z,2.61
2016-02-15T00:49:41.603Z,2.62
2016-02-15T00:50:41.559Z,2.67
2016-02-15T00:51:41.531Z,2.68
2016-02-15T00:52:41.502Z,2.68
2016-02-15T00:53:41.474Z,2.71
2016-02-15T00:54:41.445Z,2.67
2016-02-15T00:55:41.416Z,2.67
2016-02-15T00:56:41.372Z,2.64
2016-02-15T00:57:41.360Z,2.61
2016-02-15T00:58:41.316Z,2.6
2016-02-15T00:59:41.302Z,2.62
2016-02-15T01:00:41.257Z,2.68
2016-02-15T01:01:41.246Z,2.68
2016-02-15T01:02:41.201Z,2.65
2016-02-15T01:03:41.171Z,2.72
2016-02-15T01:04:41.143Z,2.64
2016-02-15T01:05:41.099Z,2.67
2016-02-15T01:06:41.087Z,2.65
2016-02-15T01:07:41.043Z,2.62
2016-02-15T01:08:41.014Z,2.67
2016-02-15T01:09:40.985Z,2.64
2016-02-15T01:10:40.957Z,2.64
2016-02-15T01:11:40.928Z,2.64
2016-02-15T01:12:40.898Z,2.64
2016-02-15T01:13:40.859Z,2.64
2016-02-15T01:14:40.819Z,2.68
2016-02-15T01:15:40.764Z,2.67
2016-02-15T01:16:40.740Z,2.62
2016-02-15T01:17:40.685Z,2.61
2016-02-15T01:18:40.652Z,2.68
2016-02-15T01:19:40.619Z,2.65
2016-02-15T01:20:40.602Z,2.62
2016-02-15T01:21:40.554Z,2.61
2016-02-15T01:22:40.521Z,2.65
2016-02-15T01:23:40.476Z,2.65
2016-02-15T01:24:40.462Z,2.65
2016-02-15T01:25:40.415Z,2.67
2016-02-15T01:26:40.400Z,2.65
2016-02-15T01:27:40.356Z,2.64
2016-02-15T01:28:40.326Z,2.71
2016-02-15T01:29:40.297Z,2.64
2016-02-15T01:30:40.269Z,2.68
2016-02-15T01:31:40.255Z,2.71
2016-02-15T01:32:40.211Z,2.62
2016-02-15T01:33:40.182Z,2.65
2016-02-15T01:34:40.153Z,2.71
2016-02-15T01:35:40.126Z,2.68
2016-02-15T01:36:40.081Z,2.69
2016-02-15T01:37:40.067Z,2.71
2016-02-15T01:38:40.024Z,2.67
2016-02-15T01:39:39.995Z,2.71
2016-02-15T01:40:39.967Z,2.69
2016-02-15T01:41:39.938Z,2.67
2016-02-15T01:42:39.909Z,2.67
2016-02-15T01:43:39.881Z,2.65
2016-02-15T01:44:39.853Z,2.71
2016-02-15T01:45:39.823Z,2.64
2016-02-15T01:46:39.795Z,2.64
2016-02-15T01:47:39.751Z,2.71
2016-02-15T01:48:39.753Z,2.77
2016-02-15T01:49:39.695Z,2.67
2016-02-15T01:50:39.666Z,2.71
2016-02-15T01:51:39.636Z,2.72
2016-02-15T01:52:39.608Z,2.65
2016-02-15T01:53:39.580Z,2.64
2016-02-15T01:54:39.551Z,2.65
2016-02-15T01:55:39.522Z,2.71
2016-02-15T01:56:39.494Z,2.61
2016-02-15T01:57:39.449Z,2.72
2016-02-15T01:58:39.422Z,2.68
2016-02-15T01:59:39.393Z,2.64
2016-02-15T02:00:39.363Z,2.74
2016-02-15T02:01:39.336Z,2.75
2016-02-15T02:02:39.307Z,2.72
2016-02-15T02:03:39.278Z,2.65
2016-02-15T02:04:39.250Z,2.68
2016-02-15T02:05:39.221Z,2.74
2016-02-15T02:06:39.177Z,2.69
2016-02-15T02:07:39.165Z,2.69
2016-02-15T02:08:39.120Z,2.64
2016-02-15T02:09:39.092Z,2.71
2016-02-15T02:10:39.063Z,2.64
2016-02-15T02:11:39.050Z,2.62
2016-02-15T02:12:39.006Z,2.69
2016-02-15T02:13:38.978Z,2.74
2016-02-15T02:14:38.948Z,2.72
2016-02-15T02:15:38.920Z,2.69
2016-02-15T02:16:38.876Z,2.74
2016-02-15T02:17:38.847Z,2.61
2016-02-15T02:18:38.834Z,2.69
2016-02-15T02:19:38.790Z,2.68
2016-02-15T02:20:38.761Z,2.69
2016-02-15T02:21:38.733Z,2.69
2016-02-15T02:22:38.705Z,2.64
2016-02-15T02:23:38.676Z,2.65
2016-02-15T02:24:38.647Z,2.69
2016-02-15T02:25:38.603Z,2.61
2016-02-15T02:26:38.590Z,2.62
2016-02-15T02:27:38.547Z,2.64
2016-02-15T02:28:38.518Z,2.61
2016-02-15T02:29:38.488Z,2.64
2016-02-15T02:30:38.461Z,2.67
2016-02-15T02:31:38.432Z,2.64
2016-02-15T02:32:38.404Z,2.68
2016-02-15T02:33:38.374Z,2.65
2016-02-15T02:34:38.346Z,2.65
2016-02-15T02:35:38.302Z,2.62
2016-02-15T02:36:38.290Z,2.67
2016-02-15T02:37:38.245Z,2.69
2016-02-15T02:38:38.216Z,2.6
2016-02-15T02:39:38.188Z,2.69
2016-02-15T02:40:38.159Z,2.68
2016-02-15T02:41:38.131Z,2.71
2016-02-15T02:42:38.102Z,2.62
2016-02-15T02:43:38.073Z,2.67
2016-02-15T02:44:38.045Z,2.62
2016-02-15T02:45:38.001Z,2.64
2016-02-15T02:46:37.987Z,2.65
2016-02-15T02:47:37.959Z,2.61
2016-02-15T02:48:37.931Z,2.62
2016-02-15T02:49:37.887Z,2.6
2016-02-15T02:50:37.873Z,2.67
2016-02-15T02:51:37.830Z,2.65
2016-02-15T02:52:37.800Z,2.6
2016-02-15T02:53:37.616Z,2.67
2016-02-15T02:54:37.744Z,2.62
2016-02-15T02:55:37.699Z,2.65
2016-02-15T02:56:37.686Z,2.57
2016-02-15T02:57:37.658Z,2.57
2016-02-15T02:58:37.614Z,2.65
2016-02-15T02:59:37.585Z,2.61
2016-02-15T03:00:37.572Z,2.67
2016-02-15T03:01:37.560Z,2.64
2016-02-15T03:02:37.499Z,2.64
2016-02-15T03:03:37.471Z,2.67
2016-02-15T03:04:37.426Z,2.68
2016-02-15T03:05:37.414Z,2.65
2016-02-15T03:06:37.370Z,2.64
2016-02-15T03:07:37.341Z,2.64
2016-02-15T03:08:37.313Z,2.61
2016-02-15T03:09:37.299Z,2.64
2016-02-15T03:10:37.256Z,2.65
2016-02-15T03:11:37.227Z,2.62
2016-02-15T03:12:37.214Z,2.62
2016-02-15T03:13:37.170Z,2.68
2016-02-15T03:14:37.141Z,2.65
2016-02-15T03:15:37.098Z,2.61
2016-02-15T03:16:37.084Z,2.67
2016-02-15T03:17:37.040Z,2.64
2016-02-15T03:18:37.011Z,2.64
2016-02-15T03:19:36.983Z,2.54
2016-02-15T03:20:36.970Z,2.65
2016-02-15T03:21:36.785Z,2.68
2016-02-15T03:22:36.897Z,2.68
2016-02-15T03:23:36.900Z,2.65
2016-02-15T03:24:36.840Z,2.64
2016-02-15T03:25:36.811Z,2.62
2016-02-15T03:26:36.783Z,2.62
2016-02-15T03:27:36.739Z,2.65
2016-02-15T03:28:36.711Z,2.64
2016-02-15T03:29:36.682Z,2.64
2016-02-15T03:30:36.652Z,2.64
2016-02-15T03:31:36.641Z,2.65
2016-02-15T03:32:36.596Z,2.61
2016-02-15T03:33:36.583Z,2.62
2016-02-15T03:34:36.538Z,2.67
2016-02-15T03:35:36.494Z,2.69
2016-02-15T03:36:36.482Z,2.65
2016-02-15T03:37:36.453Z,2.6
2016-02-15T03:38:36.424Z,2.61
2016-02-15T03:39:36.380Z,2.68
2016-02-15T03:40:36.352Z,2.68
2016-02-15T03:41:36.323Z,2.6
2016-02-15T03:42:36.295Z,2.65
2016-02-15T03:43:36.266Z,2.65
2016-02-15T03:44:36.237Z,2.62
2016-02-15T03:45:36.193Z,2.65
2016-02-15T03:46:36.165Z,2.61
2016-02-15T03:47:36.136Z,2.65
2016-02-15T03:48:36.108Z,2.69
2016-02-15T03:49:36.079Z,2.68
2016-02-15T03:50:36.051Z,2.62
2016-02-15T03:51:36.006Z,2.68
2016-02-15T03:52:35.978Z,2.65
2016-02-15T03:53:35.950Z,2.69
2016-02-15T03:54:35.921Z,2.67
2016-02-15T03:55:35.892Z,2.64
2016-02-15T03:56:35.863Z,2.56
2016-02-15T03:57:35.835Z,2.64
2016-02-15T03:58:35.806Z,2.54
2016-02-15T03:59:35.778Z,2.57
2016-02-15T04:00:35.749Z,2.6
2016-02-15T04:01:35.705Z,2.54
2016-02-15T04:02:35.692Z,2.6
2016-02-15T04:03:35.664Z,2.54
2016-02-15T04:04:35.635Z,2.56
2016-02-15T04:05:35.590Z,2.54
2016-02-15T04:06:35.563Z,2.56
2016-02-15T04:07:35.534Z,2.5
2016-02-15T04:08:35.505Z,2.56
2016-02-15T04:09:35.477Z,2.46
2016-02-15T04:10:35.432Z,2.53
2016-02-15T04:11:35.420Z,2.44
2016-02-15T04:12:35.391Z,2.43
2016-02-15T04:13:35.346Z,2.47
2016-02-15T04:14:35.318Z,2.43
2016-02-15T04:15:35.290Z,2.46
2016-02-15T04:16:35.261Z,2.43
2016-02-15T04:17:35.232Z,2.49
2016-02-15T04:18:35.251Z,2.47
2016-02-15T04:19:35.175Z,2.39
2016-02-15T04:20:35.131Z,2.47
2016-02-15T04:21:35.103Z,2.44
2016-02-15T04:22:35.074Z,2.44
2016-02-15T04:23:35.045Z,2.47
2016-02-15T04:24:35.017Z,2.39
2016-02-15T04:25:34.988Z,2.43
2016-02-15T04:26:34.961Z,2.44
2016-02-15T04:27:34.916Z,2.42
2016-02-15T04:28:34.886Z,2.29
2016-02-15T04:29:34.859Z,2.25
2016-02-15T04:30:34.830Z,2.43
2016-02-15T04:31:34.801Z,2.29
2016-02-15T04:32:34.773Z,2.26
2016-02-15T04:33:34.744Z,2.31
2016-02-15T04:34:34.716Z,2.31
2016-02-15T04:35:34.671Z,2.44
2016-02-15T04:36:34.643Z,2.47
2016-02-15T04:37:34.614Z,2.33
2016-02-15T04:38:34.586Z,2.33
2016-02-15T04:39:34.557Z,2.33
2016-02-15T04:40:34.528Z,2.39
2016-02-15T04:41:34.501Z,2.28
2016-02-15T04:42:34.471Z,2.26
2016-02-15T04:43:34.443Z,2.28
2016-02-15T04:44:34.415Z,2.29
2016-02-15T04:45:34.386Z,2.38
2016-02-15T04:46:34.357Z,2.28
2016-02-15T04:47:34.313Z,2.2
2016-02-15T04:48:34.284Z,2.28
2016-02-15T04:49:34.256Z,2.22
2016-02-15T04:50:34.228Z,2.29
2016-02-15T04:51:34.183Z,2.2
2016-02-15T04:52:34.171Z,2.28
2016-02-15T04:53:34.126Z,2.26
2016-02-15T04:54:34.097Z,2.25
2016-02-15T04:55:34.070Z,2.2
2016-02-15T04:56:34.041Z,2.28
2016-02-15T04:57:34.011Z,2.31
2016-02-15T04:58:33.967Z,2.25
2016-02-15T04:59:33.939Z,2.24
2016-02-15T05:00:33.926Z,2.29
2016-02-15T05:01:33.883Z,2.24
2016-02-15T05:02:33.853Z,2.29
2016-02-15T05:03:33.824Z,2.24
2016-02-15T05:04:33.797Z,2.31
2016-02-15T05:05:33.768Z,2.11
2016-02-15T05:06:33.738Z,2.14
2016-02-15T05:07:33.727Z,2.17
2016-02-15T05:08:33.682Z,2.15
2016-02-15T05:09:33.638Z,2.15
2016-02-15T05:10:33.625Z,2.15
2016-02-15T05:11:33.597Z,2.14
2016-02-15T05:12:33.552Z,2.13
2016-02-15T05:13:33.524Z,2.11
2016-02-15T05:14:33.495Z,2.18
2016-02-15T05:15:33.451Z,2.13
2016-02-15T05:16:33.438Z,2.15
2016-02-15T05:17:33.409Z,2.11
2016-02-15T05:18:33.365Z,2.13
2016-02-15T05:19:33.337Z,2.11
2016-02-15T05:20:33.308Z,2.06
2016-02-15T05:21:33.264Z,2.08
2016-02-15T05:22:33.251Z,2
2016-02-15T05:23:33.222Z,2.06
2016-02-15T05:24:33.194Z,2.02
2016-02-15T05:25:33.150Z,2.1
2016-02-15T05:26:33.121Z,2.07
2016-02-15T05:27:33.093Z,2.06
2016-02-15T05:28:33.064Z,2.11
2016-02-15T05:29:33.035Z,2.08
2016-02-15T05:30:33.023Z,2.11
2016-02-15T05:31:32.963Z,2.02
2016-02-15T05:32:32.934Z,2.13
2016-02-15T05:33:32.905Z,2.11
2016-02-15T05:34:32.877Z,2.04
2016-02-15T05:35:32.849Z,1.99
2016-02-15T05:36:32.820Z,2.07
2016-02-15T05:37:32.791Z,2.08
2016-02-15T05:38:32.746Z,2.06
2016-02-15T05:39:32.735Z,2.13
2016-02-15T05:40:32.705Z,2.15
2016-02-15T05:41:32.661Z,2.13
2016-02-15T05:42:32.632Z,2.08
2016-02-15T05:43:32.604Z,2.08
2016-02-15T05:44:32.560Z,2.02
2016-02-15T05:45:32.532Z,2.02
2016-02-15T05:46:32.503Z,2.14
2016-02-15T05:47:32.474Z,2.11
2016-02-15T05:48:32.446Z,2.07
2016-02-15T05:49:32.417Z,2.14
2016-02-15T05:50:32.389Z,2.17
2016-02-15T05:51:32.345Z,2.1
2016-02-15T05:52:32.332Z,2.14
2016-02-15T05:53:32.287Z,2.1
2016-02-15T05:54:32.275Z,2.1
2016-02-15T05:55:32.231Z,2.11
2016-02-15T05:56:32.202Z,2.13
2016-02-15T05:57:32.173Z,2.07
2016-02-15T05:58:32.145Z,2.04
2016-02-15T05:59:32.116Z,2.15
2016-02-15T06:00:32.088Z,2.15
2016-02-15T06:01:32.043Z,2.04
2016-02-15T06:02:32.031Z,2.06
2016-02-15T06:03:31.971Z,2.14
2016-02-15T06:04:31.817Z,2.15
2016-02-15T06:05:31.913Z,2.14
2016-02-15T06:06:31.900Z,2.1
2016-02-15T06:07:31.857Z,2.07
2016-02-15T06:08:31.827Z,2.11
2016-02-15T06:09:31.643Z,2.08
2016-02-15T06:10:31.786Z,2.08
2016-02-15T06:11:31.743Z,2.1
2016-02-15T06:12:31.713Z,2.15
2016-02-15T06:13:31.669Z,2.08
2016-02-15T06:14:31.640Z,2.15
2016-02-15T06:15:31.613Z,2.07
2016-02-15T06:16:31.584Z,2.14
2016-02-15T06:17:31.570Z,2.13
2016-02-15T06:18:31.527Z,2.13
2016-02-15T06:19:31.482Z,2.11
2016-02-15T06:20:31.454Z,2.14
2016-02-15T06:21:31.425Z,2.08
2016-02-15T06:22:31.428Z,2.13
2016-02-15T06:23:31.368Z,2.11
2016-02-15T06:24:31.340Z,2.18
2016-02-15T06:25:31.295Z,2.13
2016-02-15T06:26:31.266Z,2.15
2016-02-15T06:27:31.254Z,2.13
2016-02-15T06:28:31.350Z,2.13
2016-02-15T06:29:31.181Z,2.07
2016-02-15T06:30:31.153Z,2.07
2016-02-15T06:31:31.124Z,2.15
2016-02-15T06:32:31.080Z,2.04
2016-02-15T06:33:31.052Z,2.1
2016-02-15T06:34:31.054Z,2.11
2016-02-15T06:35:30.994Z,2.1
2016-02-15T06:36:30.981Z,2.11
2016-02-15T06:37:30.937Z,2.13
2016-02-15T06:38:30.909Z,2.08
2016-02-15T06:39:30.864Z,2.1
2016-02-15T06:40:30.851Z,2.15
2016-02-15T06:41:30.808Z,2.11
2016-02-15T06:42:30.779Z,2.08
2016-02-15T06:43:30.765Z,2.18
2016-02-15T06:44:30.721Z,2.07
2016-02-15T06:45:30.693Z,2.18
2016-02-15T06:46:30.664Z,2.11
2016-02-15T06:47:30.636Z,2.17
2016-02-15T06:48:30.592Z,2.13
2016-02-15T06:49:30.562Z,2.18
2016-02-15T06:50:30.535Z,2.14
2016-02-15T06:51:30.506Z,2.15
2016-02-15T06:52:30.477Z,2.15
2016-02-15T06:53:30.449Z,2.17
2016-02-15T06:54:30.404Z,2.11
2016-02-15T06:55:30.392Z,2.14
2016-02-15T06:56:30.348Z,2.07
2016-02-15T06:57:30.334Z,2.14
2016-02-15T06:58:30.290Z,2.15
2016-02-15T06:59:30.278Z,2.18
2016-02-15T07:00:30.233Z,2.2
2016-02-15T07:01:30.205Z,2.11
2016-02-15T07:02:30.176Z,2.14
2016-02-15T07:03:30.132Z,2.11
2016-02-15T07:04:30.103Z,2.11
2016-02-15T07:05:30.075Z,2.15
2016-02-15T07:06:30.046Z,2.15
2016-02-15T07:07:30.018Z,2.15
2016-02-15T07:08:29.989Z,2.2
2016-02-15T07:09:29.944Z,2.14
2016-02-15T07:10:29.916Z,2.18
2016-02-15T07:11:29.888Z,2.15
2016-02-15T07:12:29.859Z,2.17
2016-02-15T07:13:29.831Z,2.13
2016-02-15T07:14:29.802Z,2.13
2016-02-15T07:15:29.632Z,2.08
2016-02-15T07:16:29.746Z,2.24
2016-02-15T07:17:29.716Z,2.2
2016-02-15T07:18:29.673Z,2.25
2016-02-15T07:19:29.643Z,2.25
2016-02-15T07:20:29.615Z,2.15
2016-02-15T07:21:29.587Z,2.29
2016-02-15T07:22:29.559Z,2.2
2016-02-15T07:23:29.530Z,2.11
2016-02-15T07:24:29.484Z,2.25
2016-02-15T07:25:29.473Z,2.14
2016-02-15T07:26:29.428Z,2.17
2016-02-15T07:27:29.399Z,2.25
2016-02-15T07:28:29.370Z,2.14
2016-02-15T07:29:29.342Z,2.15
2016-02-15T07:30:29.298Z,2.17
2016-02-15T07:31:29.286Z,2.22
2016-02-15T07:32:29.241Z,2.18
2016-02-15T07:33:29.228Z,2.14
2016-02-15T07:34:29.184Z,2.18
2016-02-15T07:35:29.155Z,2.14
2016-02-15T07:36:29.127Z,2.24
2016-02-15T07:37:29.099Z,2.13
2016-02-15T07:38:29.069Z,2.14
2016-02-15T07:39:29.026Z,2.28
2016-02-15T07:40:28.997Z,2.22
2016-02-15T07:41:28.969Z,2.25
2016-02-15T07:42:28.940Z,2.26
2016-02-15T07:43:28.911Z,2.28
2016-02-15T07:44:28.883Z,2.24
2016-02-15T07:45:28.854Z,2.18
2016-02-15T07:46:28.810Z,2.18
2016-02-15T07:47:28.796Z,2.2
2016-02-15T07:48:28.754Z,2.18
2016-02-15T07:49:28.740Z,2.25
2016-02-15T07:50:28.696Z,2.2
2016-02-15T07:51:28.667Z,2.14
2016-02-15T07:52:28.639Z,2.2
2016-02-15T07:53:28.610Z,2.15
2016-02-15T07:54:28.565Z,2.11
2016-02-15T07:55:28.568Z,2.14
2016-02-15T07:56:28.525Z,2.13
2016-02-15T07:57:28.481Z,2.08
2016-02-15T07:58:28.451Z,2.13
2016-02-15T07:59:28.423Z,2.11
2016-02-15T08:00:28.395Z,2.14
2016-02-15T08:01:28.350Z,2.08
2016-02-15T08:02:28.337Z,2.11
2016-02-15T08:03:28.294Z,2.1
2016-02-15T08:04:28.281Z,2.13
2016-02-15T08:05:28.236Z,2.11
2016-02-15T08:06:28.223Z,2.17
2016-02-15T08:07:28.210Z,2.11
2016-02-15T08:08:28.150Z,2.15
2016-02-15T08:09:28.122Z,2.24
2016-02-15T08:10:28.077Z,2.17
2016-02-15T08:11:28.065Z,2.15
2016-02-15T08:12:28.021Z,2.15
2016-02-15T08:13:27.852Z,2.11
2016-02-15T08:14:27.980Z,2.17
2016-02-15T08:15:27.919Z,2.17
2016-02-15T08:16:27.906Z,2.14
2016-02-15T08:17:27.863Z,2.25
2016-02-15T08:18:27.834Z,2.2
2016-02-15T08:19:27.805Z,2.15
2016-02-15T08:20:27.776Z,2.28
2016-02-15T08:21:27.748Z,2.22
2016-02-15T08:22:27.720Z,2.25
2016-02-15T08:23:27.691Z,2.25
2016-02-15T08:24:27.662Z,2.26
2016-02-15T08:25:27.633Z,2.24
2016-02-15T08:26:27.606Z,2.25
2016-02-15T08:27:27.561Z,2.22
2016-02-15T08:28:27.531Z,2.28
2016-02-15T08:29:27.504Z,2.22
2016-02-15T08:30:27.475Z,2.26
2016-02-15T08:31:27.447Z,2.24
2016-02-15T08:32:27.417Z,2.25
2016-02-15T08:33:27.389Z,2.22
2016-02-15T08:34:27.345Z,2.13
2016-02-15T08:35:27.317Z,2.25
2016-02-15T08:36:27.304Z,2.15
2016-02-15T08:37:27.260Z,2.18
2016-02-15T08:38:27.230Z,2.17
2016-02-15T08:39:27.202Z,2.17
2016-02-15T08:40:27.159Z,2.14
2016-02-15T08:41:27.146Z,2.1
2016-02-15T08:42:27.116Z,2.11
2016-02-15T08:43:27.120Z,2.14
2016-02-15T08:44:27.044Z,2.14
2016-02-15T08:45:27.016Z,2.14
2016-02-15T08:46:27.080Z,2.14
2016-02-15T08:47:26.958Z,2.22
2016-02-15T08:48:26.914Z,2.14
2016-02-15T08:49:26.902Z,2.07
2016-02-15T08:50:26.857Z,2.17
2016-02-15T08:51:26.828Z,2.14
2016-02-15T08:52:26.801Z,2.15
2016-02-15T08:53:26.771Z,2.18
2016-02-15T08:54:26.742Z,2.17
2016-02-15T08:55:26.715Z,2.17
2016-02-15T08:56:26.686Z,2.1
2016-02-15T08:57:26.657Z,2.15
2016-02-15T08:58:26.613Z,2.18
2016-02-15T08:59:26.584Z,2.22
2016-02-15T09:00:26.556Z,2.15
2016-02-15T09:01:26.528Z,2.15
2016-02-15T09:02:26.498Z,2.25
2016-02-15T09:03:26.501Z,2.1
2016-02-15T09:04:26.550Z,2.14
2016-02-15T09:05:26.398Z,2.22
2016-02-15T09:06:26.384Z,2.15
2016-02-15T09:07:26.341Z,2.11
2016-02-15T09:08:26.311Z,2.14
2016-02-15T09:09:26.283Z,2.1
2016-02-15T09:10:26.255Z,2.18
2016-02-15T09:11:26.226Z,2.17
2016-02-15T09:12:26.197Z,2.14
2016-02-15T09:13:26.169Z,2.15
2016-02-15T09:14:26.125Z,2.17
2016-02-15T09:15:26.147Z,2.14
2016-02-15T09:16:26.072Z,2.13
2016-02-15T09:17:26.043Z,2.24
2016-02-15T09:18:26.014Z,2.14
2016-02-15T09:19:26.017Z,2.13
2016-02-15T09:20:25.958Z,2.14
2016-02-15T09:21:25.913Z,2.1
2016-02-15T09:22:25.884Z,2.18
2016-02-15T09:23:25.856Z,2.13
2016-02-15T09:24:25.983Z,2.11
2016-02-15T09:25:25.799Z,2.14
2016-02-15T09:26:25.786Z,2.11
2016-02-15T09:27:25.741Z,2.07
2016-02-15T09:28:25.713Z,2.18
2016-02-15T09:29:25.685Z,2.13
2016-02-15T09:30:25.655Z,2.08
2016-02-15T09:31:25.627Z,2.15
2016-02-15T09:32:25.583Z,2.14
2016-02-15T09:33:25.554Z,2.11
2016-02-15T09:34:25.526Z,2.17
2016-02-15T09:35:25.498Z,2.1
2016-02-15T09:36:25.469Z,2.17
2016-02-15T09:37:25.440Z,2.15
2016-02-15T09:38:25.412Z,2.22
2016-02-15T09:39:25.383Z,2.22
2016-02-15T09:40:25.354Z,2.25
2016-02-15T09:41:25.326Z,2.22
2016-02-15T09:42:25.282Z,2.18
2016-02-15T09:43:25.253Z,2.18
2016-02-15T09:44:25.226Z,2.14
2016-02-15T09:45:25.196Z,2.13
2016-02-15T09:46:25.167Z,2.14
2016-02-15T09:47:25.124Z,2.1
2016-02-15T09:48:25.111Z,2.25
2016-02-15T09:49:25.081Z,2.15
2016-02-15T09:50:25.039Z,2.14
2016-02-15T09:51:25.009Z,2.17
2016-02-15T09:52:24.981Z,2.15
2016-02-15T09:53:24.937Z,2.11
2016-02-15T09:54:24.924Z,2.15
2016-02-15T09:55:24.880Z,2.13
2016-02-15T09:56:24.850Z,2.1
2016-02-15T09:57:24.822Z,2.14
2016-02-15T09:58:24.794Z,2.13
2016-02-15T09:59:24.765Z,2.07
2016-02-15T10:00:24.737Z,2.07
2016-02-15T10:01:24.708Z,2.15
2016-02-15T10:02:24.680Z,2.06
2016-02-15T10:03:24.635Z,2.15
2016-02-15T10:04:24.607Z,2.1
2016-02-15T10:05:24.594Z,2.1
2016-02-15T10:06:24.549Z,2.13
2016-02-15T10:07:24.521Z,2.1
2016-02-15T10:08:24.540Z,2.1
2016-02-15T10:09:24.449Z,2.15
2016-02-15T10:10:24.435Z,2.08
2016-02-15T10:11:24.407Z,2.11
2016-02-15T10:12:24.362Z,2.04
2016-02-15T10:13:24.334Z,2.15
2016-02-15T10:14:24.305Z,2.13
2016-02-15T10:15:24.277Z,2.14
2016-02-15T10:16:24.248Z,2.14
2016-02-15T10:17:24.236Z,2.17
2016-02-15T10:18:24.174Z,2.15
2016-02-15T10:19:24.147Z,2.15
2016-02-15T10:20:24.091Z,2.17
2016-02-15T10:21:24.065Z,2.2
2016-02-15T10:22:24.007Z,2.25
2016-02-15T10:23:23.967Z,2.25
2016-02-15T10:24:23.934Z,2.25
2016-02-15T10:25:23.901Z,2.22
2016-02-15T10:26:23.868Z,2.28
2016-02-15T10:27:23.834Z,2.31
2016-02-15T10:28:23.786Z,2.29
2016-02-15T10:29:23.787Z,2.31
2016-02-15T10:30:23.724Z,2.32
2016-02-15T10:31:23.710Z,2.31
2016-02-15T10:32:23.664Z,2.26
2016-02-15T10:33:23.634Z,2.25
2016-02-15T10:34:23.636Z,2.29
2016-02-15T10:35:23.575Z,2.29
2016-02-15T10:36:23.547Z,2.26
2016-02-15T10:37:23.502Z,2.22
2016-02-15T10:38:23.488Z,2.28
2016-02-15T10:39:23.445Z,2.33
2016-02-15T10:40:23.431Z,2.28
2016-02-15T10:41:23.387Z,2.25
2016-02-15T10:42:23.358Z,2.32
2016-02-15T10:43:23.329Z,2.31
2016-02-15T10:44:23.285Z,2.39
2016-02-15T10:45:23.255Z,2.33
2016-02-15T10:46:23.227Z,2.39
2016-02-15T10:47:23.199Z,2.36
2016-02-15T10:48:23.170Z,2.26
2016-02-15T10:49:23.142Z,2.33
2016-02-15T10:50:23.113Z,2.42
2016-02-15T10:51:23.084Z,2.36
2016-02-15T10:52:23.057Z,2.35
2016-02-15T10:53:23.027Z,2.33
2016-02-15T10:54:23.014Z,2.25
2016-02-15T10:55:22.955Z,2.29
2016-02-15T10:56:22.942Z,2.25
2016-02-15T10:57:22.898Z,2.28
2016-02-15T10:58:23.213Z,2.28
2016-02-15T10:59:22.840Z,2.31
2016-02-15T11:00:22.812Z,2.29
2016-02-15T11:01:22.798Z,2.26
2016-02-15T11:02:22.755Z,2.24
2016-02-15T11:03:22.773Z,2.26
2016-02-15T11:04:22.681Z,2.28
2016-02-15T11:05:22.654Z,2.26
2016-02-15T11:06:22.625Z,2.25
2016-02-15T11:07:22.596Z,2.29
2016-02-15T11:08:22.584Z,2.28
2016-02-15T11:09:22.539Z,2.25
2016-02-15T11:10:22.510Z,2.24
2016-02-15T11:11:22.483Z,2.25
2016-02-15T11:12:22.578Z,2.28
2016-02-15T11:13:22.410Z,2.25
2016-02-15T11:14:22.397Z,2.26
2016-02-15T11:15:22.352Z,2.25
2016-02-15T11:16:22.339Z,2.26
2016-02-15T11:17:22.295Z,2.26
2016-02-15T11:18:22.282Z,2.25
2016-02-15T11:19:22.113Z,2.28
2016-02-15T11:20:22.209Z,2.25
2016-02-15T11:21:22.182Z,2.28
2016-02-15T11:22:22.152Z,2.15
2016-02-15T11:23:22.154Z,2.25
2016-02-15T11:24:22.080Z,2.17
2016-02-15T11:25:22.051Z,2.17
2016-02-15T11:26:22.037Z,2.25
2016-02-15T11:27:21.994Z,2.25
2016-02-15T11:28:21.965Z,2.24
2016-02-15T11:29:22.562Z,2.24
2016-02-15T11:30:21.924Z,2.29
2016-02-15T11:31:21.926Z,2.15
2016-02-15T11:32:21.851Z,2.14
2016-02-15T11:33:21.822Z,2.25
2016-02-15T11:34:21.794Z,2.26
2016-02-15T11:35:21.765Z,2.18
2016-02-15T11:36:21.721Z,2.38
2016-02-15T11:37:21.709Z,2.44
2016-02-15T11:38:21.664Z,2.33
2016-02-15T11:39:21.635Z,2.33
2016-02-15T11:40:21.607Z,2.35
2016-02-15T11:41:21.578Z,2.25
2016-02-15T11:42:21.550Z,2.29
2016-02-15T11:43:21.521Z,2.43
2016-02-15T11:44:21.493Z,2.5
2016-02-15T11:45:21.480Z,2.44
2016-02-15T11:46:21.436Z,2.39
2016-02-15T11:47:21.391Z,2.33
2016-02-15T11:48:21.379Z,2.29
2016-02-15T11:49:21.335Z,2.31
2016-02-15T11:50:21.321Z,2.24
2016-02-15T11:51:21.277Z,2.22
2016-02-15T11:52:21.249Z,2.46
2016-02-15T11:53:21.220Z,2.39
2016-02-15T11:54:21.191Z,2.32
2016-02-15T11:55:21.163Z,2.43
2016-02-15T11:56:21.134Z,2.47
2016-02-15T11:57:21.106Z,2.47
2016-02-15T11:58:21.093Z,2.47
2016-02-15T11:59:21.048Z,2.44
2016-02-15T12:00:21.020Z,2.5
2016-02-15T12:01:20.992Z,2.43
2016-02-15T12:02:20.948Z,2.43
2016-02-15T12:03:20.934Z,2.43
2016-02-15T12:04:20.890Z,2.28
2016-02-15T12:05:20.878Z,2.33
2016-02-15T12:06:20.848Z,2.43
2016-02-15T12:07:20.805Z,2.31
2016-02-15T12:08:20.776Z,2.44
2016-02-15T12:09:20.747Z,2.39
2016-02-15T12:10:20.719Z,2.36
2016-02-15T12:11:20.691Z,2.42
2016-02-15T12:12:20.646Z,2.36
2016-02-15T12:13:20.633Z,2.35
2016-02-15T12:14:20.589Z,2.43
2016-02-15T12:15:20.577Z,2.33
2016-02-15T12:16:20.532Z,2.39
2016-02-15T12:17:20.503Z,2.38
2016-02-15T12:18:20.475Z,2.44
2016-02-15T12:19:20.463Z,2.43
2016-02-15T12:20:20.433Z,2.47
2016-02-15T12:21:20.405Z,2.5
2016-02-15T12:22:20.361Z,2.49
2016-02-15T12:23:20.332Z,2.49
2016-02-15T12:24:20.319Z,2.5
2016-02-15T12:25:20.275Z,2.51
2016-02-15T12:26:20.246Z,2.44
2016-02-15T12:27:20.202Z,2.44
2016-02-15T12:28:20.189Z,2.53
2016-02-15T12:29:20.145Z,2.49
2016-02-15T12:30:20.117Z,2.51
2016-02-15T12:31:20.087Z,2.43
2016-02-15T12:32:20.059Z,2.5
2016-02-15T12:33:20.093Z,2.43
2016-02-15T12:34:20.423Z,2.49
2016-02-15T12:35:19.973Z,2.53
2016-02-15T12:36:19.945Z,2.49
2016-02-15T12:37:19.917Z,2.43
2016-02-15T12:38:19.872Z,2.47
2016-02-15T12:39:19.859Z,2.51
2016-02-15T12:40:19.815Z,2.44
2016-02-15T12:41:19.802Z,2.49
2016-02-15T12:42:19.759Z,2.46
2016-02-15T12:43:19.730Z,2.47
2016-02-15T12:44:19.717Z,2.46
2016-02-15T12:45:19.672Z,2.44
2016-02-15T12:46:19.644Z,2.6
2016-02-15T12:47:19.615Z,2.5
2016-02-15T12:48:19.586Z,2.54
2016-02-15T12:49:19.558Z,2.61
2016-02-15T12:50:19.530Z,2.43
2016-02-15T12:51:19.579Z,2.46
2016-02-15T12:52:19.472Z,2.46
2016-02-15T12:53:19.429Z,2.44
2016-02-15T12:54:19.415Z,2.5
2016-02-15T12:55:19.371Z,2.43
2016-02-15T12:56:19.358Z,2.49
2016-02-15T12:57:19.315Z,2.5
2016-02-15T12:58:19.285Z,2.46
2016-02-15T12:59:19.256Z,2.49
2016-02-15T13:00:19.213Z,2.44
2016-02-15T13:01:19.200Z,2.54
2016-02-15T13:02:19.155Z,2.51
2016-02-15T13:03:19.143Z,2.53
2016-02-15T13:04:19.098Z,2.43
2016-02-15T13:05:19.070Z,2.47
2016-02-15T13:06:19.042Z,2.46
2016-02-15T13:07:19.012Z,2.44
2016-02-15T13:08:18.984Z,2.46
2016-02-15T13:09:18.956Z,2.49
2016-02-15T13:10:18.927Z,2.44
2016-02-15T13:11:18.898Z,2.49
2016-02-15T13:12:18.870Z,2.47
2016-02-15T13:13:18.826Z,2.44
2016-02-15T13:14:18.813Z,2.42
2016-02-15T13:15:18.783Z,2.49
2016-02-15T13:16:18.866Z,2.43
2016-02-15T13:17:18.727Z,2.49
2016-02-15T13:18:18.682Z,2.49
2016-02-15T13:19:18.655Z,2.46
2016-02-15T13:20:18.624Z,2.44